• Join FlightAware (Why Join?)
  • Login
  • US Flag 
12:01AM EST


 

Airport Tracker/Info


-or-


 

Live Flight TrackerFlight Track Log ✈ UPS1337 ✈ 11-Apr-2014 ✈ KPIE - KRDU

Flight Track Log - Related Links

Times and Time Zones

All times are in EDT time to prevent confusion due to time zone crossing. See the UPS1337 flight status page for this flight to view local times or setup timezone preferences in your user account.

Time Position Orientation Groundspeed Altitude Reporting Facility
EDT Latitude Longitude Course Direction KTS MPH feet Rate Location/Type
09:39PM 27.9167 -82.7000 16° North 171 197 1,000  Level Tampa TRACON
09:40PM 27.9667 -82.6833 16° North 194 223 2,600 3,060 Climbing Tampa TRACON
09:42PM 28.0747 -82.6503 15° North 256 295 8,600 3,120 Climbing Jacksonville Center
09:43PM 28.1581 -82.6431 North 271 312 11,300 2,460 Climbing Jacksonville Center
09:44PM 28.2622 -82.6381 North 318 366 13,600 2,700 Climbing Jacksonville Center
09:45PM 28.3731 -82.6353 North 370 426 16,700 2,820 Climbing Jacksonville Center
09:46PM 28.4897 -82.6303 North 399 459 19,300 2,460 Climbing Jacksonville Center
09:47PM 28.6108 -82.6253 North 413 475 21,700 2,280 Climbing Jacksonville Center
09:48PM 28.7297 -82.6178 North 427 491 23,900 1,980 Climbing Jacksonville Center
09:49PM 28.8614 -82.6153 North 444 511 25,700 1,740 Climbing Jacksonville Center
09:50PM 28.9928 -82.6100 North 456 525 27,400 1,800 Climbing Jacksonville Center
09:51PM 29.1306 -82.6050 North 470 541 29,300 1,260 Climbing Jacksonville Center
09:52PM 29.2683 -82.5997 North 481 554 30,000 1,380 Climbing Jacksonville Center
09:53PM 29.4039 -82.5947 North 481 554 32,100 1,620 Climbing Jacksonville Center
09:54PM 29.5397 -82.5869 North 481 554 33,300 1,320 Climbing Jacksonville Center
09:55PM 29.6775 -82.5842 North 481 554 34,800 840 Climbing Jacksonville Center
09:56PM 29.8131 -82.5789 North 481 554 35,000 60 Climbing Jacksonville Center
09:57PM 29.9489 -82.5761 North 481 554 35,000 -60 Level Jacksonville Center
09:58PM 30.0697 -82.5711 North 481 554 34,900  Descending Jacksonville Center
09:59PM 30.2139 -82.5225 16° North 481 554 35,000  Climbing Jacksonville Center
10:00PM 30.3453 -82.4689 19° North 486 559 35,000  Level Jacksonville Center
10:01PM 30.4786 -82.4178 18° North 491 565 35,000  Level Jacksonville Center
10:02PM 30.6119 -82.3639 19° North 496 571 35,000  Level Jacksonville Center
10:03PM 30.7433 -82.3125 19° North 501 577 35,000  Level Jacksonville Center
10:04PM 30.8767 -82.2633 18° North 501 577 35,000 -60 Level Jacksonville Center
10:05PM 31.0122 -82.2092 19° North 501 577 34,900  Descending Jacksonville Center
10:06PM 31.1414 -82.1572 19° North 501 577 35,000  Climbing Jacksonville Center
10:07PM 31.2767 -82.1050 18° North 501 577 35,000  Level Jacksonville Center
10:08PM 31.4122 -82.0503 19° North 501 577 35,000  Level Jacksonville Center
10:09PM 31.5453 -81.9978 19° North 501 577 35,000  Level Jacksonville Center
10:10PM 31.6786 -81.9453 19° North 501 577 35,000  Level Jacksonville Center
10:11PM 31.7994 -81.8978 18° North 501 577 35,000  Level Jacksonville Center
10:12PM 31.9472 -81.8397 18° North 501 577 35,000  Level Jacksonville Center
10:13PM 32.0803 -81.7867 19° North 502 578 35,000  Level Jacksonville Center
10:14PM 32.2008 -81.7386 19° North 502 578 35,000  Level Jacksonville Center
10:15PM 32.3486 -81.6778 19° North 502 578 35,000  Level Jacksonville Center
10:16PM 32.4839 -81.6242 18° North 507 583 35,000  Level Jacksonville Center
10:17PM 32.6022 -81.5758 19° North 500 575 35,000  Level Jacksonville Center
10:18PM 32.7417 -81.5194 19° North 506 582 35,000 -60 Level Jacksonville Center
10:19PM 32.8744 -81.4631 20° North 506 582 34,900 -60 Descending Jacksonville Center
10:20PM 33.0094 -81.4089 19° North 501 577 34,900  Level Jacksonville Center
10:21PM 33.1447 -81.3544 19° North 501 577 35,000  Climbing Jacksonville Center
10:22PM 33.2794 -81.2975 19° North 501 577 35,000 -60 Level Jacksonville Center
10:23PM 33.4125 -81.2428 19° North 501 577 34,900 -480 Descending Jacksonville Center
10:28PM 34.0985 -80.7987 41° Northeast 525 604 32,000 -600 Descending FlightAware ADS-B (KCDN)
10:29PM 34.1572 -80.7367 42° Northeast 504 580 31,500 -900 Descending FlightAware ADS-B (KCDN)
10:29PM 34.2149 -80.6913 25° Northeast 481 554 31,100 -960 Descending FlightAware ADS-B (KCDN)
10:30PM 34.3037 -80.6419 25° Northeast 476 548 30,300 -1,320 Descending FlightAware ADS-B (KCDN)
10:31PM 34.4364 -80.5677 25° Northeast 474 545 28,700 -1,380 Descending FlightAware ADS-B (KCDN)
10:32PM 34.5083 -80.4914 25° Northeast 458 527 27,700 -1,620 Descending Jacksonville Center
10:34PM 34.6433 -80.2772 53° Northeast 410 472 24,300 -1,620 Descending Washington Center
10:35PM 34.7167 -80.1628 52° Northeast 423 487 23,000 -660 Descending Washington Center
10:36PM 34.7917 -80.0531 50° Northeast 423 487 23,000  Level Washington Center
10:37PM 34.8894 -79.9497 41° Northeast 423 487 23,000 -120 Level Washington Center
10:38PM 34.9722 -79.8528 44° Northeast 418 481 22,800 -1,200 Descending Washington Center
10:39PM 35.0589 -79.7608 41° Northeast 413 475 20,600 -2,160 Descending Washington Center
10:40PM 35.1392 -79.6711 42° Northeast 401 461 18,500 -2,040 Descending Washington Center
10:41PM 35.2192 -79.5861 41° Northeast 382 440 16,600 -1,920 Descending Washington Center
10:42PM 35.2983 -79.5289 31° Northeast 366 421 14,700 -2,040 Descending Washington Center
10:43PM 35.3794 -79.4719 30° Northeast 349 402 12,700 -1,920 Descending Washington Center
10:44PM 35.4647 -79.4172 28° Northeast 344 396 11,100 -900 Descending Washington Center
10:45PM 35.5403 -79.3367 41° Northeast 350 403 11,000 -480 Descending Washington Center
10:46PM 35.5947 -79.2653 47° Northeast 332 382 10,300 -780 Descending Washington Center
10:46PM 35.6078 -79.2506 43° Northeast 333 383 10,200 -1,320 Descending Washington Center
10:47PM 35.6578 -79.1864 46° Northeast 295 339 9,000 -1,260 Descending Washington Center
10:48PM 35.7119 -79.1172 46° Northeast 281 323 8,000 -540 Descending Washington Center
10:49PM 35.7681 -79.0506 44° Northeast 282 325 8,000  Level Washington Center
10:50PM 35.8244 -78.9786 46° Northeast 284 327 8,000 -660 Level Washington Center
10:51PM 35.8847 -78.9144 41° Northeast 284 327 6,700 -1,800 Descending Washington Center
10:52PM 35.9489 -78.8506 39° Northeast 303 349 4,400 -1,860 Descending Washington Center
10:53PM 36.0089 -78.7914 39° Northeast 259 298 3,000 -1,140 Descending Washington Center
10:54PM 36.0544 -78.7342 45° Northeast 231 266 2,200 -420 Descending Washington Center
10:55PM 36.0264 -78.6867 126° Southeast 183 211 2,200  Level Washington Center
10:56PM 35.9850 -78.6697 162° South 169 194 2,200 -60 Level Washington Center
10:57PM 35.9550 -78.7044 223° Southwest 155 178 2,100 -360 Descending Washington Center
10:58PM 35.9292 -78.7344 223° Southwest 110 127 1,500 -540 Descending Washington Center
10:59PM 35.9097 -78.7567 223° Southwest 96 110 1,000 -480 Descending Washington Center
11:01PM 35.8776 -78.7875 North  Level Estimated
11:08PM 35.8776 -78.7875 North  Level Estimated